sensor_id;sensor_type;location;lat;lon;timestamp;temperature;humidity
9762;DHT22;4920;49.594;11.022;2023-08-20T00:02:13;23.30;99.90
9762;DHT22;4920;49.594;11.022;2023-08-20T00:04:44;23.30;99.90
9762;DHT22;4920;49.594;11.022;2023-08-20T00:07:15;23.30;99.90
9762;DHT22;4920;49.594;11.022;2023-08-20T00:09:47;23.30;99.90
9762;DHT22;4920;49.594;11.022;2023-08-20T00:12:16;23.30;99.90
9762;DHT22;4920;49.594;11.022;2023-08-20T00:14:55;23.20;99.90
9762;DHT22;4920;49.594;11.022;2023-08-20T00:17:26;23.20;99.90
9762;DHT22;4920;49.594;11.022;2023-08-20T00:19:56;23.20;99.90
9762;DHT22;4920;49.594;11.022;2023-08-20T00:22:26;23.20;99.90
9762;DHT22;4920;49.594;11.022;2023-08-20T00:24:57;23.10;99.90
9762;DHT22;4920;49.594;11.022;2023-08-20T00:27:26;23.10;99.90
9762;DHT22;4920;49.594;11.022;2023-08-20T00:29:54;23.10;99.90
9762;DHT22;4920;49.594;11.022;2023-08-20T00:32:23;23.00;99.90
9762;DHT22;4920;49.594;11.022;2023-08-20T00:34:52;23.00;99.90
9762;DHT22;4920;49.594;11.022;2023-08-20T00:37:21;22.90;99.90
9762;DHT22;4920;49.594;11.022;2023-08-20T00:39:50;22.90;99.90
9762;DHT22;4920;49.594;11.022;2023-08-20T00:42:21;22.90;99.90
9762;DHT22;4920;49.594;11.022;2023-08-20T00:44:53;22.90;99.90
9762;DHT22;4920;49.594;11.022;2023-08-20T00:47:21;22.90;99.90
9762;DHT22;4920;49.594;11.022;2023-08-20T00:49:50;22.90;99.90
9762;DHT22;4920;49.594;11.022;2023-08-20T00:52:20;22.80;99.90
9762;DHT22;4920;49.594;11.022;2023-08-20T00:54:50;22.80;99.90
9762;DHT22;4920;49.594;11.022;2023-08-20T00:57:19;22.70;99.90
9762;DHT22;4920;49.594;11.022;2023-08-20T00:59:50;22.70;99.90
9762;DHT22;4920;49.594;11.022;2023-08-20T01:02:20;22.70;99.90
9762;DHT22;4920;49.594;11.022;2023-08-20T01:04:49;22.60;99.90
9762;DHT22;4920;49.594;11.022;2023-08-20T01:07:24;22.50;99.90
9762;DHT22;4920;49.594;11.022;2023-08-20T01:10:01;22.50;99.90
9762;DHT22;4920;49.594;11.022;2023-08-20T01:12:34;22.40;99.90
9762;DHT22;4920;49.594;11.022;2023-08-20T01:15:06;22.40;99.90
9762;DHT22;4920;49.594;11.022;2023-08-20T01:17:36;22.40;99.90
9762;DHT22;4920;49.594;11.022;2023-08-20T01:20:06;22.40;99.90
9762;DHT22;4920;49.594;11.022;2023-08-20T01:22:54;22.30;99.90
9762;DHT22;4920;49.594;11.022;2023-08-20T01:25:37;22.40;99.90
9762;DHT22;4920;49.594;11.022;2023-08-20T01:28:25;22.40;99.90
9762;DHT22;4920;49.594;11.022;2023-08-20T01:30:56;22.40;99.90
9762;DHT22;4920;49.594;11.022;2023-08-20T01:33:26;22.40;99.90
9762;DHT22;4920;49.594;11.022;2023-08-20T01:35:57;22.40;99.90
9762;DHT22;4920;49.594;11.022;2023-08-20T01:38:26;22.40;99.90
9762;DHT22;4920;49.594;11.022;2023-08-20T01:40:55;22.40;99.90
9762;DHT22;4920;49.594;11.022;2023-08-20T01:43:26;22.30;99.90
9762;DHT22;4920;49.594;11.022;2023-08-20T01:45:55;22.30;99.90
9762;DHT22;4920;49.594;11.022;2023-08-20T01:48:24;22.30;99.90
9762;DHT22;4920;49.594;11.022;2023-08-20T01:50:52;22.20;99.90
9762;DHT22;4920;49.594;11.022;2023-08-20T01:53:21;22.20;99.90
9762;DHT22;4920;49.594;11.022;2023-08-20T01:55:50;22.30;99.90
9762;DHT22;4920;49.594;11.022;2023-08-20T01:58:20;22.20;99.90
9762;DHT22;4920;49.594;11.022;2023-08-20T02:00:50;22.20;99.90
9762;DHT22;4920;49.594;11.022;2023-08-20T02:03:20;22.20;99.90
9762;DHT22;4920;49.594;11.022;2023-08-20T02:05:48;22.10;99.90
9762;DHT22;4920;49.594;11.022;2023-08-20T02:08:17;22.10;99.90
9762;DHT22;4920;49.594;11.022;2023-08-20T02:10:46;22.10;99.90
9762;DHT22;4920;49.594;11.022;2023-08-20T02:13:15;22.00;99.90
9762;DHT22;4920;49.594;11.022;2023-08-20T02:15:44;22.00;99.90
9762;DHT22;4920;49.594;11.022;2023-08-20T02:18:15;22.00;99.90
9762;DHT22;4920;49.594;11.022;2023-08-20T02:20:44;22.00;99.90
9762;DHT22;4920;49.594;11.022;2023-08-20T02:23:13;22.00;99.90
9762;DHT22;4920;49.594;11.022;2023-08-20T02:25:43;22.00;99.90
9762;DHT22;4920;49.594;11.022;2023-08-20T02:28:12;22.00;99.90
9762;DHT22;4920;49.594;11.022;2023-08-20T02:30:41;22.00;99.90
9762;DHT22;4920;49.594;11.022;2023-08-20T02:33:11;22.00;99.90
9762;DHT22;4920;49.594;11.022;2023-08-20T02:35:41;22.00;99.90
9762;DHT22;4920;49.594;11.022;2023-08-20T02:38:10;22.00;99.90
9762;DHT22;4920;49.594;11.022;2023-08-20T02:40:40;22.00;99.90
9762;DHT22;4920;49.594;11.022;2023-08-20T02:43:09;21.90;99.90
9762;DHT22;4920;49.594;11.022;2023-08-20T02:45:42;21.80;99.90
9762;DHT22;4920;49.594;11.022;2023-08-20T02:48:11;21.80;99.90
9762;DHT22;4920;49.594;11.022;2023-08-20T02:50:42;21.70;99.90
9762;DHT22;4920;49.594;11.022;2023-08-20T02:53:11;21.60;99.90
9762;DHT22;4920;49.594;11.022;2023-08-20T02:55:40;21.60;99.90
9762;DHT22;4920;49.594;11.022;2023-08-20T02:58:09;21.50;99.90
9762;DHT22;4920;49.594;11.022;2023-08-20T03:00:38;21.50;99.90
9762;DHT22;4920;49.594;11.022;2023-08-20T03:03:07;21.40;99.90
9762;DHT22;4920;49.594;11.022;2023-08-20T03:05:38;21.40;99.90
9762;DHT22;4920;49.594;11.022;2023-08-20T03:08:09;21.30;99.90
9762;DHT22;4920;49.594;11.022;2023-08-20T03:10:38;21.20;99.90
9762;DHT22;4920;49.594;11.022;2023-08-20T03:13:07;21.20;99.90
9762;DHT22;4920;49.594;11.022;2023-08-20T03:15:36;21.20;99.90
9762;DHT22;4920;49.594;11.022;2023-08-20T03:18:05;21.10;99.90
9762;DHT22;4920;49.594;11.022;2023-08-20T03:20:34;21.10;99.90
9762;DHT22;4920;49.594;11.022;2023-08-20T03:23:03;21.10;99.90
9762;DHT22;4920;49.594;11.022;2023-08-20T03:25:34;21.00;99.90
9762;DHT22;4920;49.594;11.022;2023-08-20T03:28:03;21.00;99.90
9762;DHT22;4920;49.594;11.022;2023-08-20T03:30:32;21.00;99.90
9762;DHT22;4920;49.594;11.022;2023-08-20T03:33:01;21.00;99.90
9762;DHT22;4920;49.594;11.022;2023-08-20T03:35:33;20.90;99.90
9762;DHT22;4920;49.594;11.022;2023-08-20T03:38:02;20.90;99.90
9762;DHT22;4920;49.594;11.022;2023-08-20T03:40:32;20.90;99.90
9762;DHT22;4920;49.594;11.022;2023-08-20T03:43:02;20.90;99.90
9762;DHT22;4920;49.594;11.022;2023-08-20T03:45:31;20.80;99.90
9762;DHT22;4920;49.594;11.022;2023-08-20T03:48:00;20.80;99.90
9762;DHT22;4920;49.594;11.022;2023-08-20T03:50:30;20.80;99.90
9762;DHT22;4920;49.594;11.022;2023-08-20T03:52:58;20.70;99.90
9762;DHT22;4920;49.594;11.022;2023-08-20T03:55:27;20.70;99.90
9762;DHT22;4920;49.594;11.022;2023-08-20T03:57:58;20.70;99.90
9762;DHT22;4920;49.594;11.022;2023-08-20T04:00:26;20.70;99.90
9762;DHT22;4920;49.594;11.022;2023-08-20T04:02:55;20.70;99.90
9762;DHT22;4920;49.594;11.022;2023-08-20T04:05:24;20.60;99.90
9762;DHT22;4920;49.594;11.022;2023-08-20T04:07:53;20.60;99.90
9762;DHT22;4920;49.594;11.022;2023-08-20T04:10:23;20.60;99.90
9762;DHT22;4920;49.594;11.022;2023-08-20T04:12:52;20.50;99.90
9762;DHT22;4920;49.594;11.022;2023-08-20T04:15:22;20.50;99.90
9762;DHT22;4920;49.594;11.022;2023-08-20T04:17:51;20.50;99.90
9762;DHT22;4920;49.594;11.022;2023-08-20T04:20:21;20.50;99.90
9762;DHT22;4920;49.594;11.022;2023-08-20T04:22:50;20.50;99.90
9762;DHT22;4920;49.594;11.022;2023-08-20T04:25:19;20.50;99.90
9762;DHT22;4920;49.594;11.022;2023-08-20T04:27:48;20.50;99.90
9762;DHT22;4920;49.594;11.022;2023-08-20T04:30:17;20.60;99.90
9762;DHT22;4920;49.594;11.022;2023-08-20T04:32:47;20.60;99.90
9762;DHT22;4920;49.594;11.022;2023-08-20T04:35:16;20.60;99.90
9762;DHT22;4920;49.594;11.022;2023-08-20T04:37:45;20.70;99.90
9762;DHT22;4920;49.594;11.022;2023-08-20T04:40:14;20.70;99.90
9762;DHT22;4920;49.594;11.022;2023-08-20T04:42:45;20.80;99.90
9762;DHT22;4920;49.594;11.022;2023-08-20T04:45:15;20.90;99.90
9762;DHT22;4920;49.594;11.022;2023-08-20T04:47:48;21.00;99.90
9762;DHT22;4920;49.594;11.022;2023-08-20T04:50:17;21.10;99.90
9762;DHT22;4920;49.594;11.022;2023-08-20T04:52:48;21.20;99.90
9762;DHT22;4920;49.594;11.022;2023-08-20T04:55:17;21.20;99.90
9762;DHT22;4920;49.594;11.022;2023-08-20T04:57:46;21.30;99.90
9762;DHT22;4920;49.594;11.022;2023-08-20T05:00:15;21.50;99.90
9762;DHT22;4920;49.594;11.022;2023-08-20T05:02:52;21.60;99.90
9762;DHT22;4920;49.594;11.022;2023-08-20T05:05:24;21.70;99.90
9762;DHT22;4920;49.594;11.022;2023-08-20T05:07:53;21.90;99.90
9762;DHT22;4920;49.594;11.022;2023-08-20T05:10:22;22.00;99.90
9762;DHT22;4920;49.594;11.022;2023-08-20T05:12:51;22.10;99.90
9762;DHT22;4920;49.594;11.022;2023-08-20T05:15:20;22.20;99.90
9762;DHT22;4920;49.594;11.022;2023-08-20T05:17:52;22.30;99.90
9762;DHT22;4920;49.594;11.022;2023-08-20T05:20:21;22.30;99.90
9762;DHT22;4920;49.594;11.022;2023-08-20T05:22:50;22.50;99.90
9762;DHT22;4920;49.594;11.022;2023-08-20T05:25:19;22.80;99.90
9762;DHT22;4920;49.594;11.022;2023-08-20T05:27:49;23.10;99.90
9762;DHT22;4920;49.594;11.022;2023-08-20T05:30:18;23.40;99.90
9762;DHT22;4920;49.594;11.022;2023-08-20T05:32:47;23.60;99.90
9762;DHT22;4920;49.594;11.022;2023-08-20T05:35:17;23.70;99.90
9762;DHT22;4920;49.594;11.022;2023-08-20T05:37:48;23.70;99.90
9762;DHT22;4920;49.594;11.022;2023-08-20T05:40:17;23.60;99.90
9762;DHT22;4920;49.594;11.022;2023-08-20T05:42:46;23.60;99.90
9762;DHT22;4920;49.594;11.022;2023-08-20T05:45:18;23.50;99.90
9762;DHT22;4920;49.594;11.022;2023-08-20T05:47:48;23.40;99.90
9762;DHT22;4920;49.594;11.022;2023-08-20T05:50:19;23.30;99.90
9762;DHT22;4920;49.594;11.022;2023-08-20T05:52:48;23.30;99.90
9762;DHT22;4920;49.594;11.022;2023-08-20T05:55:16;23.30;99.90
9762;DHT22;4920;49.594;11.022;2023-08-20T05:57:46;23.40;99.90
9762;DHT22;4920;49.594;11.022;2023-08-20T06:00:16;23.40;99.90
9762;DHT22;4920;49.594;11.022;2023-08-20T06:02:47;23.50;99.90
9762;DHT22;4920;49.594;11.022;2023-08-20T06:05:18;23.60;99.90
9762;DHT22;4920;49.594;11.022;2023-08-20T06:07:47;23.80;99.90
9762;DHT22;4920;49.594;11.022;2023-08-20T06:10:18;23.90;99.90
9762;DHT22;4920;49.594;11.022;2023-08-20T06:12:47;24.00;99.90
9762;DHT22;4920;49.594;11.022;2023-08-20T06:15:16;24.20;99.90
9762;DHT22;4920;49.594;11.022;2023-08-20T06:17:45;24.30;99.90
9762;DHT22;4920;49.594;11.022;2023-08-20T06:20:14;24.40;99.90
9762;DHT22;4920;49.594;11.022;2023-08-20T06:22:47;24.60;99.90
9762;DHT22;4920;49.594;11.022;2023-08-20T06:25:16;24.70;99.90
9762;DHT22;4920;49.594;11.022;2023-08-20T06:27:45;24.80;99.90
9762;DHT22;4920;49.594;11.022;2023-08-20T06:30:14;24.90;99.90
9762;DHT22;4920;49.594;11.022;2023-08-20T06:32:44;25.10;99.90
9762;DHT22;4920;49.594;11.022;2023-08-20T06:35:13;25.20;99.90
9762;DHT22;4920;49.594;11.022;2023-08-20T06:37:42;25.30;99.90
9762;DHT22;4920;49.594;11.022;2023-08-20T06:40:12;25.50;99.90
9762;DHT22;4920;49.594;11.022;2023-08-20T06:42:42;25.60;99.90
9762;DHT22;4920;49.594;11.022;2023-08-20T06:45:11;25.60;99.90
9762;DHT22;4920;49.594;11.022;2023-08-20T06:47:40;25.70;99.90
9762;DHT22;4920;49.594;11.022;2023-08-20T06:50:09;25.70;99.90
9762;DHT22;4920;49.594;11.022;2023-08-20T06:52:39;25.80;99.90
9762;DHT22;4920;49.594;11.022;2023-08-20T06:55:08;25.90;99.90
9762;DHT22;4920;49.594;11.022;2023-08-20T06:57:38;26.00;99.90
9762;DHT22;4920;49.594;11.022;2023-08-20T07:00:07;26.10;99.90
9762;DHT22;4920;49.594;11.022;2023-08-20T07:02:37;26.20;99.90
9762;DHT22;4920;49.594;11.022;2023-08-20T07:05:06;26.20;99.90
9762;DHT22;4920;49.594;11.022;2023-08-20T07:07:36;26.30;99.90
9762;DHT22;4920;49.594;11.022;2023-08-20T07:10:06;26.40;99.90
9762;DHT22;4920;49.594;11.022;2023-08-20T07:12:35;26.40;99.90
9762;DHT22;4920;49.594;11.022;2023-08-20T07:15:06;26.50;99.90
9762;DHT22;4920;49.594;11.022;2023-08-20T07:17:35;26.50;99.90
9762;DHT22;4920;49.594;11.022;2023-08-20T07:20:07;26.50;99.90
9762;DHT22;4920;49.594;11.022;2023-08-20T07:22:35;26.50;99.90
9762;DHT22;4920;49.594;11.022;2023-08-20T07:25:04;26.60;99.90
9762;DHT22;4920;49.594;11.022;2023-08-20T07:27:34;26.70;99.90
9762;DHT22;4920;49.594;11.022;2023-08-20T07:30:07;26.80;99.90
9762;DHT22;4920;49.594;11.022;2023-08-20T07:32:36;26.90;99.90
9762;DHT22;4920;49.594;11.022;2023-08-20T07:35:05;27.00;99.90
9762;DHT22;4920;49.594;11.022;2023-08-20T07:37:37;27.10;99.90
9762;DHT22;4920;49.594;11.022;2023-08-20T07:40:07;27.20;99.90
9762;DHT22;4920;49.594;11.022;2023-08-20T07:42:36;27.30;99.90
9762;DHT22;4920;49.594;11.022;2023-08-20T07:45:08;27.30;99.90
9762;DHT22;4920;49.594;11.022;2023-08-20T07:47:37;27.40;99.90
9762;DHT22;4920;49.594;11.022;2023-08-20T07:50:06;27.50;99.90
9762;DHT22;4920;49.594;11.022;2023-08-20T07:52:35;27.60;99.90
9762;DHT22;4920;49.594;11.022;2023-08-20T07:55:04;27.60;99.90
9762;DHT22;4920;49.594;11.022;2023-08-20T07:57:33;27.70;99.90
9762;DHT22;4920;49.594;11.022;2023-08-20T08:00:02;27.80;99.90
9762;DHT22;4920;49.594;11.022;2023-08-20T08:02:39;27.80;99.90
9762;DHT22;4920;49.594;11.022;2023-08-20T08:05:08;27.90;99.90
9762;DHT22;4920;49.594;11.022;2023-08-20T08:07:37;28.00;99.90
9762;DHT22;4920;49.594;11.022;2023-08-20T08:10:06;28.10;99.90
9762;DHT22;4920;49.594;11.022;2023-08-20T08:12:35;28.20;99.90
9762;DHT22;4920;49.594;11.022;2023-08-20T08:15:05;28.30;99.90
9762;DHT22;4920;49.594;11.022;2023-08-20T08:17:34;28.40;99.90
9762;DHT22;4920;49.594;11.022;2023-08-20T08:20:06;28.40;99.90
9762;DHT22;4920;49.594;11.022;2023-08-20T08:22:35;28.50;99.90
9762;DHT22;4920;49.594;11.022;2023-08-20T08:25:04;28.60;99.90
9762;DHT22;4920;49.594;11.022;2023-08-20T08:27:33;28.80;99.90
9762;DHT22;4920;49.594;11.022;2023-08-20T08:30:13;28.80;99.90
9762;DHT22;4920;49.594;11.022;2023-08-20T08:32:42;28.90;99.90
9762;DHT22;4920;49.594;11.022;2023-08-20T08:35:12;29.00;99.90
9762;DHT22;4920;49.594;11.022;2023-08-20T08:37:41;29.10;99.90
9762;DHT22;4920;49.594;11.022;2023-08-20T08:40:10;29.20;99.90
9762;DHT22;4920;49.594;11.022;2023-08-20T08:42:40;29.20;99.90
9762;DHT22;4920;49.594;11.022;2023-08-20T08:45:09;29.30;99.90
9762;DHT22;4920;49.594;11.022;2023-08-20T08:47:39;29.50;99.90
9762;DHT22;4920;49.594;11.022;2023-08-20T08:50:09;29.50;99.90
9762;DHT22;4920;49.594;11.022;2023-08-20T08:52:40;29.50;99.90
9762;DHT22;4920;49.594;11.022;2023-08-20T08:55:09;29.60;99.90
9762;DHT22;4920;49.594;11.022;2023-08-20T08:57:38;29.80;99.90
9762;DHT22;4920;49.594;11.022;2023-08-20T09:00:07;29.90;99.90
9762;DHT22;4920;49.594;11.022;2023-08-20T09:02:37;29.90;99.90
9762;DHT22;4920;49.594;11.022;2023-08-20T09:05:06;30.10;99.90
9762;DHT22;4920;49.594;11.022;2023-08-20T09:07:35;30.20;99.90
9762;DHT22;4920;49.594;11.022;2023-08-20T09:10:07;30.30;99.90
9762;DHT22;4920;49.594;11.022;2023-08-20T09:12:35;30.40;99.90
9762;DHT22;4920;49.594;11.022;2023-08-20T09:15:10;30.60;99.90
9762;DHT22;4920;49.594;11.022;2023-08-20T09:17:41;30.70;99.90
9762;DHT22;4920;49.594;11.022;2023-08-20T09:20:10;30.80;99.90
9762;DHT22;4920;49.594;11.022;2023-08-20T09:22:39;30.80;99.90
9762;DHT22;4920;49.594;11.022;2023-08-20T09:25:15;31.00;99.90
9762;DHT22;4920;49.594;11.022;2023-08-20T09:27:44;31.10;99.90
9762;DHT22;4920;49.594;11.022;2023-08-20T09:30:18;31.20;99.90
9762;DHT22;4920;49.594;11.022;2023-08-20T09:33:03;31.20;99.90
9762;DHT22;4920;49.594;11.022;2023-08-20T09:35:32;31.30;99.90
9762;DHT22;4920;49.594;11.022;2023-08-20T09:38:02;31.30;99.90
9762;DHT22;4920;49.594;11.022;2023-08-20T09:40:32;31.40;99.90
9762;DHT22;4920;49.594;11.022;2023-08-20T09:43:02;31.40;99.90
9762;DHT22;4920;49.594;11.022;2023-08-20T09:45:31;31.50;99.90
9762;DHT22;4920;49.594;11.022;2023-08-20T09:48:03;31.60;99.90
9762;DHT22;4920;49.594;11.022;2023-08-20T09:50:36;31.70;99.70
9762;DHT22;4920;49.594;11.022;2023-08-20T09:53:09;31.80;99.50
9762;DHT22;4920;49.594;11.022;2023-08-20T09:55:42;31.80;99.30
9762;DHT22;4920;49.594;11.022;2023-08-20T09:58:13;32.00;98.20
9762;DHT22;4920;49.594;11.022;2023-08-20T10:00:42;31.90;98.30
9762;DHT22;4920;49.594;11.022;2023-08-20T10:03:11;32.10;98.00
9762;DHT22;4920;49.594;11.022;2023-08-20T10:05:40;32.10;97.50
9762;DHT22;4920;49.594;11.022;2023-08-20T10:08:09;32.20;97.80
9762;DHT22;4920;49.594;11.022;2023-08-20T10:10:38;32.30;97.70
9762;DHT22;4920;49.594;11.022;2023-08-20T10:13:08;32.40;97.90
9762;DHT22;4920;49.594;11.022;2023-08-20T10:15:38;32.50;97.30
9762;DHT22;4920;49.594;11.022;2023-08-20T10:18:11;32.60;97.40
9762;DHT22;4920;49.594;11.022;2023-08-20T10:20:41;32.70;97.20
9762;DHT22;4920;49.594;11.022;2023-08-20T10:23:12;32.90;96.50
9762;DHT22;4920;49.594;11.022;2023-08-20T10:25:42;32.90;95.80
9762;DHT22;4920;49.594;11.022;2023-08-20T10:28:21;33.00;96.00
9762;DHT22;4920;49.594;11.022;2023-08-20T10:31:07;33.00;95.00
9762;DHT22;4920;49.594;11.022;2023-08-20T10:33:37;33.20;95.00
9762;DHT22;4920;49.594;11.022;2023-08-20T10:36:07;33.30;94.60
9762;DHT22;4920;49.594;11.022;2023-08-20T10:38:37;33.50;94.50
9762;DHT22;4920;49.594;11.022;2023-08-20T10:41:06;33.60;93.80
9762;DHT22;4920;49.594;11.022;2023-08-20T10:43:39;33.70;93.30
9762;DHT22;4920;49.594;11.022;2023-08-20T10:46:14;33.80;93.10
9762;DHT22;4920;49.594;11.022;2023-08-20T10:48:47;34.00;92.60
9762;DHT22;4920;49.594;11.022;2023-08-20T10:51:18;34.40;92.00
9762;DHT22;4920;49.594;11.022;2023-08-20T10:54:03;34.70;91.30
9762;DHT22;4920;49.594;11.022;2023-08-20T10:56:40;35.10;90.10
9762;DHT22;4920;49.594;11.022;2023-08-20T10:59:17;35.30;88.70
9762;DHT22;4920;49.594;11.022;2023-08-20T11:01:47;35.40;89.70
9762;DHT22;4920;49.594;11.022;2023-08-20T11:04:18;35.60;87.90
9762;DHT22;4920;49.594;11.022;2023-08-20T11:06:52;35.80;87.60
9762;DHT22;4920;49.594;11.022;2023-08-20T11:09:21;36.10;86.90
9762;DHT22;4920;49.594;11.022;2023-08-20T11:11:50;36.30;86.70
9762;DHT22;4920;49.594;11.022;2023-08-20T11:14:21;36.50;85.30
9762;DHT22;4920;49.594;11.022;2023-08-20T11:16:50;36.60;84.20
9762;DHT22;4920;49.594;11.022;2023-08-20T11:19:22;36.80;83.20
9762;DHT22;4920;49.594;11.022;2023-08-20T11:21:51;36.70;81.40
9762;DHT22;4920;49.594;11.022;2023-08-20T11:24:20;36.60;81.70
9762;DHT22;4920;49.594;11.022;2023-08-20T11:26:49;36.40;82.10
9762;DHT22;4920;49.594;11.022;2023-08-20T11:29:18;36.20;81.90
9762;DHT22;4920;49.594;11.022;2023-08-20T11:31:50;35.90;81.70
9762;DHT22;4920;49.594;11.022;2023-08-20T11:34:19;35.60;82.50
9762;DHT22;4920;49.594;11.022;2023-08-20T11:36:49;35.20;83.30
9762;DHT22;4920;49.594;11.022;2023-08-20T11:39:20;34.80;83.40
9762;DHT22;4920;49.594;11.022;2023-08-20T11:41:48;34.50;84.30
9762;DHT22;4920;49.594;11.022;2023-08-20T11:44:20;34.40;85.20
9762;DHT22;4920;49.594;11.022;2023-08-20T11:46:51;34.40;86.10
9762;DHT22;4920;49.594;11.022;2023-08-20T11:49:27;34.50;85.90
9762;DHT22;4920;49.594;11.022;2023-08-20T11:51:57;34.60;85.90
9762;DHT22;4920;49.594;11.022;2023-08-20T11:54:25;34.60;85.20
9762;DHT22;4920;49.594;11.022;2023-08-20T11:57:02;34.80;84.40
9762;DHT22;4920;49.594;11.022;2023-08-20T11:59:31;34.90;85.10
9762;DHT22;4920;49.594;11.022;2023-08-20T12:02:03;35.10;85.00
9762;DHT22;4920;49.594;11.022;2023-08-20T12:04:32;35.30;83.20
9762;DHT22;4920;49.594;11.022;2023-08-20T12:07:02;35.50;82.60
9762;DHT22;4920;49.594;11.022;2023-08-20T12:09:32;35.60;81.80
9762;DHT22;4920;49.594;11.022;2023-08-20T12:12:02;35.60;81.50
9762;DHT22;4920;49.594;11.022;2023-08-20T12:14:30;35.60;82.50
9762;DHT22;4920;49.594;11.022;2023-08-20T12:17:01;35.70;82.00
9762;DHT22;4920;49.594;11.022;2023-08-20T12:19:30;35.70;82.30
9762;DHT22;4920;49.594;11.022;2023-08-20T12:21:59;35.70;81.50
9762;DHT22;4920;49.594;11.022;2023-08-20T12:24:28;35.80;81.50
9762;DHT22;4920;49.594;11.022;2023-08-20T12:26:56;35.80;81.30
9762;DHT22;4920;49.594;11.022;2023-08-20T12:29:25;35.80;79.90
9762;DHT22;4920;49.594;11.022;2023-08-20T12:31:54;35.80;80.10
9762;DHT22;4920;49.594;11.022;2023-08-20T12:34:24;35.80;80.60
9762;DHT22;4920;49.594;11.022;2023-08-20T12:36:53;35.90;80.80
9762;DHT22;4920;49.594;11.022;2023-08-20T12:39:22;35.90;79.70
9762;DHT22;4920;49.594;11.022;2023-08-20T12:41:51;35.90;79.90
9762;DHT22;4920;49.594;11.022;2023-08-20T12:44:19;36.00;80.00
9762;DHT22;4920;49.594;11.022;2023-08-20T12:46:48;36.10;80.30
9762;DHT22;4920;49.594;11.022;2023-08-20T12:49:17;36.20;79.80
9762;DHT22;4920;49.594;11.022;2023-08-20T12:51:47;36.30;78.60
9762;DHT22;4920;49.594;11.022;2023-08-20T12:54:16;36.20;78.10
9762;DHT22;4920;49.594;11.022;2023-08-20T12:56:45;36.10;78.70
9762;DHT22;4920;49.594;11.022;2023-08-20T12:59:14;36.00;79.30
9762;DHT22;4920;49.594;11.022;2023-08-20T13:01:43;35.90;79.50
9762;DHT22;4920;49.594;11.022;2023-08-20T13:04:12;35.70;78.80
9762;DHT22;4920;49.594;11.022;2023-08-20T13:06:42;35.60;77.60
9762;DHT22;4920;49.594;11.022;2023-08-20T13:09:13;35.60;77.20
9762;DHT22;4920;49.594;11.022;2023-08-20T13:11:43;35.60;77.60
9762;DHT22;4920;49.594;11.022;2023-08-20T13:14:13;35.70;78.60
9762;DHT22;4920;49.594;11.022;2023-08-20T13:16:42;35.70;78.10
9762;DHT22;4920;49.594;11.022;2023-08-20T13:19:11;35.80;79.00
9762;DHT22;4920;49.594;11.022;2023-08-20T13:21:40;35.80;79.00
9762;DHT22;4920;49.594;11.022;2023-08-20T13:24:09;35.80;77.80
9762;DHT22;4920;49.594;11.022;2023-08-20T13:26:39;35.80;77.70
9762;DHT22;4920;49.594;11.022;2023-08-20T13:29:08;35.80;77.40
9762;DHT22;4920;49.594;11.022;2023-08-20T13:31:37;35.80;78.30
9762;DHT22;4920;49.594;11.022;2023-08-20T13:34:06;35.80;78.20
9762;DHT22;4920;49.594;11.022;2023-08-20T13:36:35;35.90;77.90
9762;DHT22;4920;49.594;11.022;2023-08-20T13:39:05;35.90;77.90
9762;DHT22;4920;49.594;11.022;2023-08-20T13:41:34;36.10;76.50
9762;DHT22;4920;49.594;11.022;2023-08-20T13:44:05;36.10;75.00
9762;DHT22;4920;49.594;11.022;2023-08-20T13:46:34;36.20;74.50
9762;DHT22;4920;49.594;11.022;2023-08-20T13:49:03;36.20;75.30
9762;DHT22;4920;49.594;11.022;2023-08-20T13:51:32;36.30;76.30
9762;DHT22;4920;49.594;11.022;2023-08-20T13:54:00;36.20;76.00
9762;DHT22;4920;49.594;11.022;2023-08-20T13:56:29;36.20;75.60
9762;DHT22;4920;49.594;11.022;2023-08-20T13:58:58;36.10;74.90
9762;DHT22;4920;49.594;11.022;2023-08-20T14:01:28;36.10;74.70
9762;DHT22;4920;49.594;11.022;2023-08-20T14:03:57;36.00;74.10
9762;DHT22;4920;49.594;11.022;2023-08-20T14:06:26;36.00;74.70
9762;DHT22;4920;49.594;11.022;2023-08-20T14:08:55;36.00;74.80
9762;DHT22;4920;49.594;11.022;2023-08-20T14:11:24;36.00;74.60
9762;DHT22;4920;49.594;11.022;2023-08-20T14:13:53;36.10;74.80
9762;DHT22;4920;49.594;11.022;2023-08-20T14:16:22;36.00;74.30
9762;DHT22;4920;49.594;11.022;2023-08-20T14:18:52;36.00;74.90
9762;DHT22;4920;49.594;11.022;2023-08-20T14:21:21;36.00;74.30
9762;DHT22;4920;49.594;11.022;2023-08-20T14:23:50;36.00;73.50
9762;DHT22;4920;49.594;11.022;2023-08-20T14:26:18;36.00;72.20
9762;DHT22;4920;49.594;11.022;2023-08-20T14:28:47;36.00;71.90
9762;DHT22;4920;49.594;11.022;2023-08-20T14:31:16;36.00;72.20
9762;DHT22;4920;49.594;11.022;2023-08-20T14:33:46;36.10;72.60
9762;DHT22;4920;49.594;11.022;2023-08-20T14:36:16;36.10;72.00
9762;DHT22;4920;49.594;11.022;2023-08-20T14:38:45;36.10;71.80
9762;DHT22;4920;49.594;11.022;2023-08-20T14:41:14;36.10;71.90
9762;DHT22;4920;49.594;11.022;2023-08-20T14:43:43;36.00;71.60
9762;DHT22;4920;49.594;11.022;2023-08-20T14:46:12;36.00;70.50
9762;DHT22;4920;49.594;11.022;2023-08-20T14:48:41;35.90;71.00
9762;DHT22;4920;49.594;11.022;2023-08-20T14:51:10;35.90;70.80
9762;DHT22;4920;49.594;11.022;2023-08-20T14:53:41;35.90;71.50
9762;DHT22;4920;49.594;11.022;2023-08-20T14:56:10;35.90;71.50
9762;DHT22;4920;49.594;11.022;2023-08-20T14:58:39;35.90;70.40
9762;DHT22;4920;49.594;11.022;2023-08-20T15:01:07;35.80;69.30
9762;DHT22;4920;49.594;11.022;2023-08-20T15:03:36;35.80;68.80
9762;DHT22;4920;49.594;11.022;2023-08-20T15:06:06;35.80;68.80
9762;DHT22;4920;49.594;11.022;2023-08-20T15:08:35;35.80;68.70
9762;DHT22;4920;49.594;11.022;2023-08-20T15:11:05;35.70;68.20
9762;DHT22;4920;49.594;11.022;2023-08-20T15:13:34;35.80;68.50
9762;DHT22;4920;49.594;11.022;2023-08-20T15:16:03;35.70;69.20
9762;DHT22;4920;49.594;11.022;2023-08-20T15:18:32;35.80;69.10
9762;DHT22;4920;49.594;11.022;2023-08-20T15:21:01;35.80;68.70
9762;DHT22;4920;49.594;11.022;2023-08-20T15:23:30;35.80;68.90
9762;DHT22;4920;49.594;11.022;2023-08-20T15:25:59;35.80;67.30
9762;DHT22;4920;49.594;11.022;2023-08-20T15:28:29;35.70;67.80
9762;DHT22;4920;49.594;11.022;2023-08-20T15:30:58;35.70;68.50
9762;DHT22;4920;49.594;11.022;2023-08-20T15:33:27;35.60;68.20
9762;DHT22;4920;49.594;11.022;2023-08-20T15:35:58;35.50;68.30
9762;DHT22;4920;49.594;11.022;2023-08-20T15:38:27;35.40;68.80
9762;DHT22;4920;49.594;11.022;2023-08-20T15:40:56;35.40;68.80
9762;DHT22;4920;49.594;11.022;2023-08-20T15:43:26;35.30;68.70
9762;DHT22;4920;49.594;11.022;2023-08-20T15:45:56;35.10;69.50
9762;DHT22;4920;49.594;11.022;2023-08-20T15:48:25;35.10;70.30
9762;DHT22;4920;49.594;11.022;2023-08-20T15:50:55;35.00;71.10
9762;DHT22;4920;49.594;11.022;2023-08-20T15:53:24;35.00;71.30
9762;DHT22;4920;49.594;11.022;2023-08-20T15:55:53;35.00;71.70
9762;DHT22;4920;49.594;11.022;2023-08-20T15:58:21;35.10;72.70
9762;DHT22;4920;49.594;11.022;2023-08-20T16:00:50;35.10;72.10
9762;DHT22;4920;49.594;11.022;2023-08-20T16:03:20;35.10;72.50